Wetter- und Hausseite der Bittkau's aus Magdeburg Ottersleben

Hier werden aktuelle Daten aus einer privaten Wetterstation und

lokale Wettervorhersagen bereitgestellt




Thunder radar more information blitzortung!


Rain radar more information rain snow radar



METAR-Meldungen aus der Umgebung

   
EDDB - Berlin
Aktualisierung: 04.10.2022 6:20
leicht bewölkt  
leicht bewölkt  
   Wind: WNW 14.8 km/h
Wind: WNW 14.8 km/h
Temperatur: 11°C
Taupunkt: 9°C
Luftfeuchte: 88%
Luftdruck: 1021 hPa
Bewölkt: leicht bewölkt
Sichtbarkeit: More than 10 km
Bewölkung: leicht bewölkt 457.2 m
EDDB 040420Z AUTO 29008KT 9999 FEW015 11/09 Q1021
EDDP - Leipzig
Aktualisierung: 04.10.2022 5:50
Stark bewölkt  
Stark bewölkt  
   Wind: WSW 16.7 km/h
Wind: WSW 16.7 km/h
Temperatur: 10°C
Gefühlt: 8°C
Taupunkt: 9°C
Luftfeuchte: 94%
Luftdruck: 1022 hPa
Bewölkt: Stark bewölkt
Sichtbarkeit: More than 10 km
Bewölkung: Stark bewölkt 823 m
EDDP 040350Z AUTO 25009KT 9999 BKN027 10/09 Q1022 NOSIG
EDDC - Dresden
Aktualisierung: 04.10.2022 6:20
Bewölkt  
Bewölkt  
   Wind: WNW 16.7 km/h
Wind: WNW 16.7 km/h
Temperatur: 11°C
Taupunkt: 10°C
Luftfeuchte: 94%
Luftdruck: 1021 hPa
Bewölkt: Bewölkt
Sichtbarkeit: More than 10 km
Bewölkung: Bewölkt 274.3 m,
Bewölkt 1432.6 m
EDDC 040420Z AUTO 30009KT 270V330 9999 OVC009 OVC047 11/10 Q1021
EDDE - Erfurt
Aktualisierung: 04.10.2022 6:20
Klar  
Klar  
   Wind: SW 11.1 km/h
Wind: SW 11.1 km/h
Temperatur: 7°C
Gefühlt: 5°C
Taupunkt: 6°C
Luftfeuchte: 93%
Luftdruck: 1023 hPa
Sichtbarkeit: More than 10 km
Bewölkung: Klar
EDDE 040420Z AUTO 22006KT CAVOK 07/06 Q1023 NOSIG
EDVE - Braunschweig
Aktualisierung: 04.10.2022 5:50
Bewölkt  
Bewölkt  
   Wind: variiert 3.7 km/h
Wind: variiert 3.7 km/h
Temperatur: 10°C
Taupunkt: 9°C
Luftfeuchte: 94%
Luftdruck: 1022 hPa
Bewölkt: Bewölkt
Sichtbarkeit: More than 10 km
Bewölkung: Bewölkt 4572 m
EDVE 040350Z AUTO VRB02KT 9999 OVC150/// 10/09 Q1022
EDDV - Hannover
Aktualisierung: 04.10.2022 6:20
Klar  
Klar  
   Wind: Osten 1.9 km/h
Wind: Osten 1.9 km/h
Temperatur: 10°C
Taupunkt: 9°C
Luftfeuchte: 94%
Luftdruck: 1022 hPa
Sichtbarkeit: More than 10 km
Bewölkung: Klar
EDDV 040420Z AUTO 10001KT CAVOK 10/09 Q1022 NOSIG
EDDE - Schwerin
Aktualisierung: 04.10.2022 6:20
Klar  
Klar  
   Wind: SW 11.1 km/h
Wind: SW 11.1 km/h
Temperatur: 7°C
Gefühlt: 5°C
Taupunkt: 6°C
Luftfeuchte: 93%
Luftdruck: 1023 hPa
Sichtbarkeit: More than 10 km
Bewölkung: Klar
EDDE 040420Z AUTO 22006KT CAVOK 07/06 Q1023 NOSIG
EDHI - Hamburg
Aktualisierung: 04.10.2022 5:50
Klar  
Klar  
   Wind: variiert 3.7 km/h
Wind: variiert 3.7 km/h
Temperatur: 10°C
Taupunkt: 9°C
Luftfeuchte: 94%
Luftdruck: 1021 hPa
Sichtbarkeit: More than 10 km
Bewölkung: Klar
EDHI 040350Z VRB02KT CAVOK 10/09 Q1021
EDDK - Köln-Bonn
Aktualisierung: 04.10.2022 6:20
Klar  
Klar  
   Wind: variiert 3.7 km/h
Wind: variiert 3.7 km/h
Temperatur: 6°C
Taupunkt: 5°C
Luftfeuchte: 93%
Luftdruck: 1023 hPa
Sichtbarkeit: More than 10 km
Bewölkung: Klar
EDDK 040420Z AUTO VRB02KT CAVOK 06/05 Q1023 NOSIG

Script entwickelt von  Saratoga-weather.org Angepasst für das Template von  Weerstation Leuven

Sie finden die Wetterinfo auch auf:

Wetternetzwerk Deutschland

Weather Underground

Regionalwetter-SA

wetter.com

wxforum.de

Genutzte Hardware, Software und WEB Anbieter:

Wetterstation
Ventus W928-Ultimate

Wetterprogramm
Weather Display

WetterComputer
RaspberryPI

Anbieter

Ventus W928-Ultimate

Weather Display

RaspberryPI